createdAt,value
2018-04-20T00:01:39.512Z,82.9
2018-04-20T00:11:54.746Z,85
2018-04-20T00:22:08.471Z,87.6
2018-04-20T00:32:23.747Z,90
2018-04-20T00:42:37.560Z,92
2018-04-20T00:52:52.850Z,95.7
2018-04-20T01:03:08.308Z,97.5
2018-04-20T01:13:22.227Z,99.3
2018-04-20T01:23:37.589Z,99.5
2018-04-20T01:33:52.685Z,98.4
2018-04-20T01:44:08.263Z,100
2018-04-20T01:54:23.627Z,100
2018-04-20T02:04:38.691Z,100
2018-04-20T02:14:53.100Z,100
2018-04-20T02:25:08.606Z,100
2018-04-20T02:35:24.093Z,100
2018-04-20T02:45:39.492Z,100
2018-04-20T02:55:54.323Z,100
2018-04-20T03:06:09.766Z,100
2018-04-20T03:16:23.761Z,100
2018-04-20T03:26:38.820Z,100
2018-04-20T03:36:53.767Z,100
2018-04-20T03:47:09.426Z,100
2018-04-20T03:57:23.494Z,100
2018-04-20T04:07:37.401Z,100
2018-04-20T04:17:52.030Z,100
2018-04-20T04:28:06.296Z,100
2018-04-20T04:38:20.195Z,100
2018-04-20T04:48:34.682Z,100
2018-04-20T04:58:48.446Z,100
2018-04-20T05:09:03.438Z,100
2018-04-20T05:19:17.115Z,100
2018-04-20T05:29:32.379Z,100
2018-04-20T05:39:46.984Z,100
2018-04-20T05:50:01.037Z,100
2018-04-20T06:00:14.790Z,100
2018-04-20T06:10:29.608Z,100
2018-04-20T06:20:45.183Z,100
2018-04-20T06:31:00.032Z,100
2018-04-20T06:41:13.862Z,97.5
2018-04-20T06:51:27.657Z,93.4
2018-04-20T07:01:42.115Z,89.9
2018-04-20T07:11:56.897Z,88.7
2018-04-20T07:22:11.379Z,84.3
2018-04-20T07:32:27.174Z,78.3
2018-04-20T07:42:41.569Z,75
2018-04-20T07:52:55.866Z,73.3
2018-04-20T08:03:10.158Z,70.4
2018-04-20T08:13:24.707Z,69
2018-04-20T08:23:40.382Z,67.6
2018-04-20T08:33:55.127Z,66.7
2018-04-20T08:44:09.105Z,66.2
2018-04-20T08:54:23.444Z,65.1
2018-04-20T09:04:37.660Z,64.3
2018-04-20T09:14:52.491Z,61.7
2018-04-20T09:25:07.719Z,62.7
2018-04-20T09:35:21.635Z,61.5
2018-04-20T09:45:37.343Z,61
2018-04-20T09:55:52.195Z,60.1
2018-04-20T10:06:06.418Z,61
2018-04-20T10:16:21.121Z,59.7
2018-04-20T10:26:35.851Z,58.8
2018-04-20T10:36:51.404Z,58.9
2018-04-20T10:47:07.147Z,57.5
2018-04-20T10:57:22.626Z,57.2
2018-04-20T11:07:37.516Z,55.5
2018-04-20T11:17:52.298Z,55.3
2018-04-20T11:28:08.363Z,54.5
2018-04-20T11:38:23.401Z,54.1
2018-04-20T11:48:38.464Z,52.9
2018-04-20T11:58:52.998Z,53.3
2018-04-20T12:09:08.153Z,52.6
2018-04-20T12:19:23.384Z,51.8
2018-04-20T12:29:38.129Z,53.2
2018-04-20T12:39:53.125Z,51.8
2018-04-20T12:50:07.532Z,51
2018-04-20T13:00:21.950Z,50.2
2018-04-20T13:10:36.004Z,48.9
2018-04-20T13:20:51.155Z,47.4
2018-04-20T13:31:06.927Z,48.1
2018-04-20T13:41:21.117Z,47.4
2018-04-20T13:51:35.173Z,46.2
2018-04-20T14:01:50.617Z,45.4
2018-04-20T14:12:04.716Z,45.5
2018-04-20T14:22:19.373Z,44.6
2018-04-20T14:32:34.378Z,44.8
2018-04-20T14:42:49.012Z,45
2018-04-20T14:53:03.320Z,45.5
2018-04-20T15:03:17.723Z,45
2018-04-20T15:13:32.348Z,45.8
2018-04-20T15:23:48.057Z,46.1
2018-04-20T15:34:01.965Z,47.7
2018-04-20T15:44:17.474Z,48.8
2018-04-20T15:54:33.194Z,49.9
2018-04-20T16:04:48.565Z,49.8
2018-04-20T16:15:03.301Z,50.2
2018-04-20T16:25:18.316Z,51.5
2018-04-20T16:35:33.639Z,53.4
2018-04-20T16:45:48.085Z,53.1
2018-04-20T16:56:02.337Z,54.2
2018-04-20T17:06:16.128Z,54.6
2018-04-20T17:16:30.713Z,54.9
2018-04-20T17:26:44.776Z,57
2018-04-20T17:37:00.713Z,59
2018-04-20T17:47:15.281Z,61.1
2018-04-20T17:57:30.525Z,64.8
2018-04-20T18:07:44.391Z,68.6
2018-04-20T18:18:00.088Z,69.5
2018-04-20T18:28:15.006Z,71.3
2018-04-20T18:38:29.281Z,72
2018-04-20T18:48:45.000Z,70.7
2018-04-20T18:59:00.632Z,71.6
2018-04-20T19:09:14.155Z,71.7
2018-04-20T19:19:28.517Z,74.7
2018-04-20T19:29:42.653Z,76.7
2018-04-20T19:39:56.103Z,79
2018-04-20T19:50:10.890Z,81.9
2018-04-20T20:00:25.528Z,84.7
2018-04-20T20:10:39.727Z,87.7
2018-04-20T20:20:53.713Z,90.1
2018-04-20T20:31:08.931Z,90.4
2018-04-20T20:41:22.741Z,92
2018-04-20T20:51:37.304Z,95.1
2018-04-20T21:01:51.109Z,98.3
2018-04-20T21:12:06.200Z,100
2018-04-20T21:22:21.470Z,100
2018-04-20T21:32:35.683Z,100
2018-04-20T21:42:51.111Z,100
2018-04-20T21:53:06.409Z,100
2018-04-20T22:03:21.325Z,100
2018-04-20T22:13:35.091Z,100
2018-04-20T22:23:49.450Z,100
2018-04-20T22:34:02.832Z,100
2018-04-20T22:44:17.026Z,100
2018-04-20T22:54:30.859Z,100
2018-04-20T23:04:46.609Z,100
2018-04-20T23:15:01.421Z,100
2018-04-20T23:25:15.465Z,100
2018-04-20T23:35:29.256Z,100
2018-04-20T23:45:43.797Z,100
2018-04-20T23:55:58.947Z,100
